createdAt,value
2019-03-09T00:01:19.887Z,99089.98
2019-03-09T00:03:49.078Z,99092.89
2019-03-09T00:06:18.668Z,99101.41
2019-03-09T00:08:48.469Z,99098.10
2019-03-09T00:11:17.649Z,99094.24
2019-03-09T00:13:46.829Z,99099.45
2019-03-09T00:16:16.507Z,99101.63
2019-03-09T00:18:45.703Z,98968.72
2019-03-09T00:21:14.889Z,99094.92
2019-03-09T00:23:58.586Z,99092.68
2019-03-09T00:26:38.006Z,99109.33
2019-03-09T00:29:21.158Z,99122.41
2019-03-09T00:31:53.990Z,99110.34
2019-03-09T00:34:23.375Z,99120.71
2019-03-09T00:36:52.583Z,99117.19
2019-03-09T00:39:21.781Z,99117.52
2019-03-09T00:41:51.210Z,99134.24
2019-03-09T00:44:20.420Z,99115.29
2019-03-09T00:46:49.672Z,99127.53
2019-03-09T00:49:18.950Z,99126.65
2019-03-09T00:51:48.183Z,99130.91
2019-03-09T00:54:17.403Z,99132.94
2019-03-09T00:56:46.809Z,99135.84
2019-03-09T00:59:16.020Z,99132.87
2019-03-09T01:01:45.227Z,99125.02
2019-03-09T01:04:14.779Z,99122.37
2019-03-09T01:06:44.102Z,99138.94
2019-03-09T01:09:13.420Z,99139.41
2019-03-09T01:11:42.886Z,99135.97
2019-03-09T01:14:12.234Z,99142.53
2019-03-09T01:16:41.430Z,99148.97
2019-03-09T01:19:10.711Z,99157.02
2019-03-09T01:21:39.956Z,99157.02
2019-03-09T01:24:09.169Z,99153.97
2019-03-09T01:26:38.577Z,99160.39
2019-03-09T01:29:07.839Z,99165.94
2019-03-09T01:31:37.000Z,99172.30
2019-03-09T01:34:06.474Z,99175.20
2019-03-09T01:36:35.723Z,99178.39
2019-03-09T01:39:06.551Z,99186.25
2019-03-09T01:41:35.822Z,99182.54
2019-03-09T01:44:05.161Z,99191.21
2019-03-09T01:46:34.390Z,99184.45
2019-03-09T01:49:03.761Z,99182.35
2019-03-09T01:51:33.024Z,99199.48
2019-03-09T01:54:02.206Z,99195.14
2019-03-09T01:56:31.607Z,99190.41
2019-03-09T01:59:00.831Z,99191.55
2019-03-09T02:01:30.093Z,99189.16
2019-03-09T02:03:59.500Z,99199.45
2019-03-09T02:06:28.746Z,99206.50
2019-03-09T02:08:57.923Z,99193.30
2019-03-09T02:11:27.677Z,99192.42
2019-03-09T02:13:57.098Z,99191.40
2019-03-09T02:16:26.344Z,99193.97
2019-03-09T02:18:55.757Z,99184.83
2019-03-09T02:21:25.141Z,99183.95
2019-03-09T02:23:54.396Z,99188.20
2019-03-09T02:26:23.933Z,99193.50
2019-03-09T02:28:53.200Z,99192.02
2019-03-09T02:31:22.441Z,99197.02
2019-03-09T02:33:51.929Z,99203.05
2019-03-09T02:36:21.385Z,99190.26
2019-03-09T02:39:09.800Z,99197.16
2019-03-09T02:41:39.059Z,99067.42
2019-03-09T02:44:08.239Z,99201.13
2019-03-09T02:46:37.678Z,99211.34
2019-03-09T02:49:07.025Z,99206.68
2019-03-09T02:51:36.316Z,99206.28
2019-03-09T02:54:05.605Z,99204.84
2019-03-09T02:56:34.929Z,99204.77
2019-03-09T02:59:04.123Z,99203.56
2019-03-09T03:01:43.001Z,99214.58
2019-03-09T03:04:12.190Z,99215.31
2019-03-09T03:06:41.573Z,99213.95
2019-03-09T03:09:11.165Z,99207.86
2019-03-09T03:11:40.390Z,99217.66
2019-03-09T03:14:10.805Z,99212.59
2019-03-09T03:16:40.229Z,99213.33
2019-03-09T03:19:09.423Z,99220.56
2019-03-09T03:21:38.678Z,99212.52
2019-03-09T03:24:09.053Z,99215.91
2019-03-09T03:26:38.261Z,99223.28
2019-03-09T03:29:07.505Z,99231.95
2019-03-09T03:31:37.164Z,99216.20
2019-03-09T03:34:06.433Z,99212.34
2019-03-09T03:36:35.802Z,99224.64
2019-03-09T03:39:07.621Z,99223.44
2019-03-09T03:41:37.001Z,99219.43
2019-03-09T03:44:06.245Z,99235.11
2019-03-09T03:46:35.517Z,99243.08
2019-03-09T03:49:04.774Z,99227.65
2019-03-09T03:51:34.148Z,99231.51
2019-03-09T03:54:03.447Z,99234.48
2019-03-09T03:56:32.624Z,99229.41
2019-03-09T03:59:01.879Z,99236.17
2019-03-09T04:01:31.160Z,99231.36
2019-03-09T04:04:00.342Z,99240.28
2019-03-09T04:06:29.654Z,99238.44
2019-03-09T04:08:59.408Z,99229.77
2019-03-09T04:11:28.575Z,99235.31
2019-03-09T04:13:57.787Z,99233.07
2019-03-09T04:16:27.195Z,99201.95
2019-03-09T04:18:56.383Z,99232.59
2019-03-09T04:21:25.998Z,99232.12
2019-03-09T04:23:55.414Z,99235.42
2019-03-09T04:26:24.605Z,99234.78
2019-03-09T04:28:53.990Z,99237.83
2019-03-09T04:31:23.729Z,99234.45
2019-03-09T04:33:52.939Z,99237.28
2019-03-09T04:36:22.263Z,99237.05
2019-03-09T04:38:51.645Z,99232.64
2019-03-09T04:41:20.930Z,99236.42
2019-03-09T04:43:50.212Z,99236.09
2019-03-09T04:46:20.150Z,99232.72
2019-03-09T04:48:49.401Z,99234.00
2019-03-09T04:51:18.755Z,99234.88
2019-03-09T04:53:48.075Z,99234.88
2019-03-09T04:56:17.325Z,99234.73
2019-03-09T04:58:46.724Z,99241.80
2019-03-09T05:01:16.132Z,99243.24
2019-03-09T05:03:46.022Z,99242.77
2019-03-09T05:06:18.216Z,99247.34
2019-03-09T05:09:02.984Z,99178.23
2019-03-09T05:11:33.194Z,99234.19
2019-03-09T05:14:21.105Z,99237.81
2019-03-09T05:16:50.552Z,99240.13
2019-03-09T05:19:19.830Z,99239.33
2019-03-09T05:21:49.045Z,99235.88
2019-03-09T05:24:18.549Z,99229.70
2019-03-09T05:26:47.763Z,99230.51
2019-03-09T05:29:16.949Z,99228.34
2019-03-09T05:31:46.343Z,99229.95
2019-03-09T05:34:15.523Z,99234.53
2019-03-09T05:36:44.774Z,99231.08
2019-03-09T05:39:14.190Z,99220.88
2019-03-09T05:41:43.372Z,99232.59
2019-03-09T05:44:12.586Z,99224.01
2019-03-09T05:46:42.147Z,99217.98
2019-03-09T05:49:11.365Z,99215.42
2019-03-09T05:51:40.549Z,99211.09
2019-03-09T05:54:10.045Z,99217.03
2019-03-09T05:56:39.227Z,99218.72
2019-03-09T05:59:08.434Z,99215.91
2019-03-09T06:01:37.945Z,99217.66
2019-03-09T06:04:07.155Z,99212.20
2019-03-09T06:06:36.545Z,99210.52
2019-03-09T06:09:07.211Z,99208.75
2019-03-09T06:11:36.428Z,99203.28
2019-03-09T06:14:05.645Z,99211.55
2019-03-09T06:16:35.389Z,99213.88
2019-03-09T06:19:04.577Z,99211.93
2019-03-09T06:21:34.025Z,99218.03
2019-03-09T06:24:03.372Z,99209.81
2019-03-09T06:26:32.564Z,99210.45
2019-03-09T06:29:01.778Z,99206.41
2019-03-09T06:31:31.185Z,99196.28
2019-03-09T06:34:00.378Z,99199.55
2019-03-09T06:36:37.725Z,99199.38
2019-03-09T06:39:30.118Z,99204.55
2019-03-09T06:42:22.657Z,99194.07
2019-03-09T06:44:52.433Z,99187.51
2019-03-09T06:47:21.633Z,99186.58
2019-03-09T06:49:50.940Z,99184.75
2019-03-09T06:52:20.139Z,99187.45
2019-03-09T06:54:49.328Z,99184.95
2019-03-09T06:57:18.644Z,99186.50
2019-03-09T06:59:47.826Z,99184.75
2019-03-09T07:02:17.026Z,99174.02
2019-03-09T07:04:46.363Z,99174.69
2019-03-09T07:07:15.571Z,99177.95
2019-03-09T07:09:44.752Z,99176.61
2019-03-09T07:12:14.073Z,99169.70
2019-03-09T07:15:24.293Z,99170.52
2019-03-09T07:18:20.113Z,99166.72
2019-03-09T07:20:49.319Z,99159.93
2019-03-09T07:23:18.618Z,99170.97
2019-03-09T07:25:48.054Z,99156.73
2019-03-09T07:28:17.607Z,99165.13
2019-03-09T07:30:46.820Z,99163.15
2019-03-09T07:33:16.667Z,99171.48
2019-03-09T07:35:45.998Z,99165.01
2019-03-09T07:38:15.336Z,99171.14
2019-03-09T07:40:44.730Z,99176.67
2019-03-09T07:43:13.925Z,99175.05
2019-03-09T07:45:43.147Z,99174.38
2019-03-09T07:48:12.649Z,99168.63
2019-03-09T07:50:41.851Z,99163.23
2019-03-09T07:53:11.120Z,99159.08
2019-03-09T07:55:40.653Z,99155.97
2019-03-09T07:58:09.829Z,99150.98
2019-03-09T08:00:39.098Z,99159.83
2019-03-09T08:03:08.548Z,99155.69
2019-03-09T08:05:37.764Z,99156.05
2019-03-09T08:08:07.064Z,99154.10
2019-03-09T08:10:36.411Z,99158.97
2019-03-09T08:13:05.586Z,99159.05
2019-03-09T08:15:34.757Z,99159.23
2019-03-09T08:18:04.252Z,99157.25
2019-03-09T08:20:33.559Z,99157.83
2019-03-09T08:23:02.726Z,99152.55
2019-03-09T08:25:32.127Z,99156.06
2019-03-09T08:28:01.294Z,99155.70
2019-03-09T08:30:30.571Z,99161.06
2019-03-09T08:33:00.068Z,99165.47
2019-03-09T08:35:29.262Z,99171.16
2019-03-09T08:37:58.438Z,99158.55
2019-03-09T08:40:27.787Z,99154.49
2019-03-09T08:42:57.070Z,99148.21
2019-03-09T08:45:26.261Z,99154.84
2019-03-09T08:47:55.594Z,99151.91
2019-03-09T08:50:24.794Z,99149.33
2019-03-09T08:52:53.975Z,99147.67
2019-03-09T08:55:23.334Z,99145.09
2019-03-09T08:57:52.515Z,99148.09
2019-03-09T09:00:30.767Z,99144.69
2019-03-09T09:03:00.252Z,99146.74
2019-03-09T09:05:29.437Z,99143.00
2019-03-09T09:07:58.773Z,99148.27
2019-03-09T09:10:29.340Z,99143.63
2019-03-09T09:12:58.522Z,99139.30
2019-03-09T09:15:27.874Z,99141.63
2019-03-09T09:17:57.105Z,99136.23
2019-03-09T09:20:26.394Z,99126.84
2019-03-09T09:22:55.784Z,99122.20
2019-03-09T09:25:24.975Z,99115.80
2019-03-09T09:27:54.925Z,99110.14
2019-03-09T09:30:26.140Z,99108.78
2019-03-09T09:32:55.339Z,99103.31
2019-03-09T09:35:24.535Z,99099.75
2019-03-09T09:37:53.885Z,99098.19
2019-03-09T09:40:23.915Z,99092.80
2019-03-09T09:42:53.228Z,99090.13
2019-03-09T09:45:23.175Z,99089.34
2019-03-09T09:47:52.359Z,99090.08
2019-03-09T09:50:21.558Z,99076.30
2019-03-09T09:52:50.957Z,99077.91
2019-03-09T09:55:20.214Z,99075.37
2019-03-09T09:57:49.396Z,99066.80
2019-03-09T10:00:20.657Z,99071.47
2019-03-09T10:02:49.832Z,99062.79
2019-03-09T10:05:19.036Z,98581.38
2019-03-09T10:07:48.609Z,99060.15
2019-03-09T10:10:18.512Z,99056.06
2019-03-09T10:12:47.778Z,99048.42
2019-03-09T10:15:19.381Z,99048.89
2019-03-09T10:17:48.577Z,99042.84
2019-03-09T10:20:17.752Z,99037.92
2019-03-09T10:22:47.119Z,99036.89
2019-03-09T10:25:16.330Z,99036.09
2019-03-09T10:27:45.654Z,99030.67
2019-03-09T10:30:17.543Z,99023.59
2019-03-09T10:32:46.778Z,99014.38
2019-03-09T10:35:15.972Z,99013.58
2019-03-09T10:37:45.519Z,99008.91
2019-03-09T10:40:14.820Z,99007.85
2019-03-09T10:42:44.020Z,98994.37
2019-03-09T10:45:13.736Z,98996.14
2019-03-09T10:47:43.002Z,98989.67
2019-03-09T10:50:13.386Z,98992.09
2019-03-09T10:52:42.744Z,98981.80
2019-03-09T10:55:14.440Z,98977.36
2019-03-09T10:57:44.615Z,98975.78
2019-03-09T11:00:22.455Z,98967.28
2019-03-09T11:02:52.028Z,98957.78
2019-03-09T11:05:21.229Z,98956.64
2019-03-09T11:07:50.459Z,98958.72
2019-03-09T11:10:19.851Z,98953.72
2019-03-09T11:12:49.122Z,98952.09
2019-03-09T11:15:18.391Z,98949.16
2019-03-09T11:17:47.840Z,98944.06
2019-03-09T11:20:17.324Z,98933.67
2019-03-09T11:22:47.656Z,98919.25
2019-03-09T11:25:17.078Z,98919.25
2019-03-09T11:27:46.266Z,98917.59
2019-03-09T11:30:18.228Z,98913.33
2019-03-09T11:32:47.498Z,98912.22
2019-03-09T11:35:16.728Z,98907.72
2019-03-09T11:37:46.331Z,98899.91
2019-03-09T11:40:16.073Z,98887.33
2019-03-09T11:42:45.251Z,98897.47
2019-03-09T11:45:15.459Z,98889.95
2019-03-09T11:47:44.750Z,98883.75
2019-03-09T11:50:15.105Z,98880.45
2019-03-09T11:52:44.588Z,98873.73
2019-03-09T11:55:14.001Z,98867.77
2019-03-09T11:57:43.213Z,98854.76
2019-03-09T12:00:14.888Z,98853.42
2019-03-09T12:02:44.068Z,98848.06
2019-03-09T12:05:13.252Z,98851.75
2019-03-09T12:07:42.708Z,98845.14
2019-03-09T12:10:12.017Z,98837.00
2019-03-09T12:12:41.240Z,98832.53
2019-03-09T12:15:11.250Z,98835.51
2019-03-09T12:17:40.477Z,98836.99
2019-03-09T12:20:09.828Z,98832.82
2019-03-09T12:22:39.152Z,98830.66
2019-03-09T12:25:09.178Z,98827.77
2019-03-09T12:27:38.454Z,98816.81
2019-03-09T12:30:09.330Z,98811.80
2019-03-09T12:32:38.512Z,98804.41
2019-03-09T12:35:08.030Z,98796.61
2019-03-09T12:37:37.609Z,98787.98
2019-03-09T12:40:08.022Z,98775.17
2019-03-09T12:42:38.057Z,98780.14
2019-03-09T12:45:08.027Z,98770.84
2019-03-09T12:47:37.510Z,98769.56
2019-03-09T12:50:09.653Z,98751.89
2019-03-09T12:52:38.873Z,98753.66
2019-03-09T12:55:08.164Z,98756.27
2019-03-09T12:57:37.554Z,98750.80
2019-03-09T13:00:08.648Z,98748.78
2019-03-09T13:02:37.997Z,98753.41
2019-03-09T13:05:07.453Z,98740.23
2019-03-09T13:07:36.645Z,98742.67
2019-03-09T13:10:06.623Z,98740.64
2019-03-09T13:12:35.795Z,98751.23
2019-03-09T13:15:05.130Z,98751.73
2019-03-09T13:17:34.484Z,98739.47
2019-03-09T13:20:03.694Z,98743.55
2019-03-09T13:22:32.933Z,98739.06
2019-03-09T13:25:02.260Z,98729.52
2019-03-09T13:27:31.477Z,98730.67
2019-03-09T13:30:00.707Z,98723.53
2019-03-09T13:32:30.219Z,98723.05
2019-03-09T13:34:59.560Z,98711.41
2019-03-09T13:37:29.087Z,98705.54
2019-03-09T13:39:58.425Z,98705.86
2019-03-09T13:42:27.634Z,98701.85
2019-03-09T13:44:57.025Z,98693.19
2019-03-09T13:47:26.633Z,98693.56
2019-03-09T13:49:55.950Z,98690.68
2019-03-09T13:52:25.441Z,98685.22
2019-03-09T13:54:54.833Z,98675.09
2019-03-09T13:57:24.357Z,98677.46
2019-03-09T13:59:53.850Z,98672.97
2019-03-09T14:02:23.178Z,98670.28
2019-03-09T14:04:52.463Z,98672.00
2019-03-09T14:07:21.745Z,98667.71
2019-03-09T14:09:51.077Z,98660.44
2019-03-09T14:12:20.323Z,98657.80
2019-03-09T14:14:49.615Z,98653.83
2019-03-09T14:17:19.227Z,98652.27
2019-03-09T14:19:48.524Z,98646.97
2019-03-09T14:22:17.849Z,98646.83
2019-03-09T14:24:47.528Z,98639.20
2019-03-09T14:27:17.039Z,98638.20
2019-03-09T14:29:46.377Z,98637.32
2019-03-09T14:32:15.730Z,98635.13
2019-03-09T14:34:50.152Z,98633.38
2019-03-09T14:37:19.802Z,98628.61
2019-03-09T14:39:49.213Z,98625.55
2019-03-09T14:42:18.390Z,98618.61
2019-03-09T14:44:47.856Z,98615.98
2019-03-09T14:47:17.103Z,98610.75
2019-03-09T14:49:47.432Z,98496.77
2019-03-09T14:52:17.013Z,98608.58
2019-03-09T14:54:46.234Z,98598.60
2019-03-09T14:57:15.534Z,98594.31
2019-03-09T14:59:44.961Z,98588.17
2019-03-09T15:02:14.259Z,98579.44
2019-03-09T15:04:43.751Z,98584.58
2019-03-09T15:07:13.464Z,98575.47
2019-03-09T15:09:42.814Z,98573.30
2019-03-09T15:12:12.078Z,98573.28
2019-03-09T15:14:41.725Z,98568.46
2019-03-09T15:17:10.989Z,98560.20
2019-03-09T15:19:40.204Z,98554.15
2019-03-09T15:22:09.592Z,98550.66
2019-03-09T15:24:38.888Z,98418.03
2019-03-09T15:27:08.189Z,98549.39
2019-03-09T15:29:37.778Z,98546.72
2019-03-09T15:32:07.261Z,98544.97
2019-03-09T15:34:36.695Z,98544.04
2019-03-09T15:37:06.126Z,98536.69
2019-03-09T15:39:35.348Z,98538.83
2019-03-09T15:42:04.735Z,98530.16
2019-03-09T15:44:34.247Z,98526.32
2019-03-09T15:47:05.815Z,98525.90
2019-03-09T15:49:34.530Z,98524.58
2019-03-09T15:52:04.106Z,98524.13
2019-03-09T15:54:33.474Z,98520.23
2019-03-09T15:57:02.770Z,98511.59
2019-03-09T15:59:32.194Z,98380.25
2019-03-09T16:02:10.985Z,98389.50
2019-03-09T16:04:40.472Z,98499.45
2019-03-09T16:07:09.753Z,98495.51
2019-03-09T16:09:39.493Z,98496.81
2019-03-09T16:12:08.963Z,98489.43
2019-03-09T16:14:38.180Z,98491.63
2019-03-09T16:17:08.012Z,98487.27
2019-03-09T16:19:37.536Z,98485.94
2019-03-09T16:22:06.741Z,98476.81
2019-03-09T16:24:36.067Z,98472.41
2019-03-09T16:27:05.646Z,98467.69
2019-03-09T16:29:34.855Z,98462.94
2019-03-09T16:32:04.107Z,98465.11
2019-03-09T16:34:33.687Z,98460.69
2019-03-09T16:37:03.043Z,98458.89
2019-03-09T16:39:32.362Z,98457.52
2019-03-09T16:42:01.894Z,98451.04
2019-03-09T16:44:31.220Z,98338.13
2019-03-09T16:47:00.577Z,98445.41
2019-03-09T16:49:31.332Z,98441.02
2019-03-09T16:52:01.122Z,98440.59
2019-03-09T16:54:33.187Z,98434.91
2019-03-09T16:57:02.421Z,98432.69
2019-03-09T16:59:31.610Z,98431.84
2019-03-09T17:02:02.728Z,98432.74
2019-03-09T17:04:31.971Z,98425.39
2019-03-09T17:07:01.175Z,98420.16
2019-03-09T17:09:30.618Z,98125.59
2019-03-09T17:11:59.945Z,98422.70
2019-03-09T17:14:29.257Z,98421.77
2019-03-09T17:17:01.196Z,98417.83
2019-03-09T17:19:30.391Z,98418.63
2019-03-09T17:21:59.634Z,98419.94
2019-03-09T17:24:29.219Z,98410.94
2019-03-09T17:26:58.509Z,98417.44
2019-03-09T17:29:27.791Z,98412.26
2019-03-09T17:31:57.219Z,98412.23
2019-03-09T17:34:26.519Z,98420.00
2019-03-09T17:36:55.776Z,98410.88
2019-03-09T17:39:25.315Z,98406.60
2019-03-09T17:41:54.617Z,98407.92
2019-03-09T17:44:23.985Z,98404.06
2019-03-09T17:46:53.822Z,98403.64
2019-03-09T17:49:23.155Z,98397.12
2019-03-09T17:51:52.450Z,98398.38
2019-03-09T17:54:21.897Z,98397.98
2019-03-09T17:56:51.227Z,98400.10
2019-03-09T17:59:20.544Z,98399.20
2019-03-09T18:01:50.098Z,98393.91
2019-03-09T18:04:19.439Z,98387.36
2019-03-09T18:06:48.738Z,98384.74
2019-03-09T18:09:18.087Z,98387.73
2019-03-09T18:11:47.346Z,98382.52
2019-03-09T18:14:16.554Z,98263.51
2019-03-09T18:16:52.700Z,98385.42
2019-03-09T18:19:16.983Z,98379.77
2019-03-09T18:21:46.249Z,98375.43
2019-03-09T18:24:16.084Z,98372.81
2019-03-09T18:26:45.387Z,98371.02
2019-03-09T18:29:14.734Z,98365.36
2019-03-09T18:31:44.293Z,98366.62
2019-03-09T18:34:15.444Z,98365.67
2019-03-09T18:36:44.588Z,98362.13
2019-03-09T18:39:13.909Z,98359.84
2019-03-09T18:41:43.135Z,98352.92
2019-03-09T18:44:12.404Z,98354.13
2019-03-09T18:46:41.944Z,98356.66
2019-03-09T18:49:11.467Z,98349.73
2019-03-09T18:51:40.663Z,98348.84
2019-03-09T18:54:10.145Z,98345.35
2019-03-09T18:56:39.526Z,98346.13
2019-03-09T18:59:08.826Z,98345.17
2019-03-09T19:01:38.351Z,98342.55
2019-03-09T19:04:07.961Z,98339.13
2019-03-09T19:06:37.322Z,98336.54
2019-03-09T19:09:09.430Z,98341.71
2019-03-09T19:11:38.732Z,98343.39
2019-03-09T19:14:07.995Z,98332.15
2019-03-09T19:16:37.347Z,98336.84
2019-03-09T19:19:06.595Z,98338.07
2019-03-09T19:21:35.898Z,98332.00
2019-03-09T19:24:05.427Z,98331.13
2019-03-09T19:26:34.694Z,98328.96
2019-03-09T19:29:04.059Z,98318.53
2019-03-09T19:31:33.519Z,98315.94
2019-03-09T19:34:02.799Z,98321.08
2019-03-09T19:36:32.030Z,98317.63
2019-03-09T19:39:01.536Z,98312.91
2019-03-09T19:41:30.877Z,98315.91
2019-03-09T19:44:00.066Z,98319.81
2019-03-09T19:46:29.766Z,98309.92
2019-03-09T19:48:59.188Z,98305.62
2019-03-09T19:51:28.608Z,98309.53
2019-03-09T19:53:58.052Z,98310.44
2019-03-09T19:56:27.328Z,98313.90
2019-03-09T19:58:56.581Z,98304.43
2019-03-09T20:01:25.983Z,98302.30
2019-03-09T20:03:55.275Z,98300.58
2019-03-09T20:06:24.526Z,98301.42
2019-03-09T20:08:54.053Z,98308.25
2019-03-09T20:11:23.359Z,98310.41
2019-03-09T20:13:52.694Z,98300.87
2019-03-09T20:16:22.161Z,98306.83
2019-03-09T20:18:51.489Z,98302.41
2019-03-09T20:21:20.770Z,98304.84
2019-03-09T20:23:50.159Z,98265.95
2019-03-09T20:26:19.499Z,98290.50
2019-03-09T20:28:48.847Z,98292.59
2019-03-09T20:31:18.224Z,98194.60
2019-03-09T20:33:47.474Z,98305.75
2019-03-09T20:36:16.767Z,98310.01
2019-03-09T20:38:46.373Z,98306.10
2019-03-09T20:41:15.682Z,98311.20
2019-03-09T20:43:44.948Z,98311.10
2019-03-09T20:46:14.489Z,98307.61
2019-03-09T20:48:43.847Z,98309.29
2019-03-09T20:51:13.050Z,98310.09
2019-03-09T20:53:42.473Z,98309.64
2019-03-09T20:56:11.706Z,98310.90
2019-03-09T20:58:40.933Z,98310.90
2019-03-09T21:01:10.298Z,98312.58
2019-03-09T21:03:39.676Z,98316.87
2019-03-09T21:06:08.950Z,98320.30
2019-03-09T21:08:38.615Z,98319.31
2019-03-09T21:11:07.891Z,98324.80
2019-03-09T21:13:37.130Z,98326.82
2019-03-09T21:16:06.641Z,98303.19
2019-03-09T21:18:35.855Z,98328.49
2019-03-09T21:21:05.061Z,98329.36
2019-03-09T21:23:35.585Z,98323.81
2019-03-09T21:26:05.002Z,98331.11
2019-03-09T21:28:34.278Z,98333.66
2019-03-09T21:31:03.695Z,98334.42
2019-03-09T21:33:33.111Z,98344.30
2019-03-09T21:36:02.332Z,98342.13
2019-03-09T21:38:31.754Z,98343.73
2019-03-09T21:41:01.040Z,98354.81
2019-03-09T21:43:30.252Z,98355.58
2019-03-09T21:45:59.828Z,98359.80
2019-03-09T21:48:29.206Z,98362.68
2019-03-09T21:50:58.452Z,98356.57
2019-03-09T21:53:28.026Z,98364.66
2019-03-09T21:55:57.425Z,98364.50
2019-03-09T21:58:26.660Z,98369.54
2019-03-09T22:00:56.113Z,98375.50
2019-03-09T22:03:25.633Z,98377.20
2019-03-09T22:06:05.269Z,98377.50
2019-03-09T22:08:26.078Z,98379.50
2019-03-09T22:10:55.385Z,98383.67
2019-03-09T22:13:24.658Z,98387.30
2019-03-09T22:15:54.255Z,98399.19
2019-03-09T22:18:23.865Z,98401.52
2019-03-09T22:20:53.458Z,98396.73
2019-03-09T22:23:23.008Z,98409.53
2019-03-09T22:25:52.465Z,98404.20
2019-03-09T22:28:21.673Z,98413.52
2019-03-09T22:30:51.223Z,98412.51
2019-03-09T22:33:20.464Z,98415.09
2019-03-09T22:35:49.735Z,98423.65
2019-03-09T22:38:19.126Z,98420.66
2019-03-09T22:40:48.796Z,98425.35
2019-03-09T22:43:18.066Z,98432.54
2019-03-09T22:45:47.488Z,98445.84
2019-03-09T22:48:16.731Z,98441.52
2019-03-09T22:50:47.117Z,98447.41
2019-03-09T22:53:16.400Z,98439.13
2019-03-09T22:55:46.735Z,98441.70
2019-03-09T22:58:16.017Z,98323.25
2019-03-09T23:00:45.870Z,98450.21
2019-03-09T23:03:15.139Z,98461.67
2019-03-09T23:05:44.329Z,98460.66
2019-03-09T23:08:13.870Z,98460.47
2019-03-09T23:10:43.085Z,98459.69
2019-03-09T23:13:12.266Z,98456.23
2019-03-09T23:15:41.541Z,98459.69
2019-03-09T23:18:10.743Z,98474.27
2019-03-09T23:20:39.995Z,98478.50
2019-03-09T23:23:09.313Z,98475.46
2019-03-09T23:25:38.565Z,98482.31
2019-03-09T23:28:07.760Z,98481.80
2019-03-09T23:30:37.257Z,98477.02
2019-03-09T23:33:06.556Z,98486.45
2019-03-09T23:35:35.798Z,98489.03
2019-03-09T23:38:05.245Z,98482.13
2019-03-09T23:40:36.162Z,98480.33
2019-03-09T23:43:05.428Z,98491.92
2019-03-09T23:45:35.125Z,98504.38
2019-03-09T23:48:04.397Z,98493.60
2019-03-09T23:50:34.383Z,98500.00
2019-03-09T23:53:03.729Z,98505.09
2019-03-09T23:55:33.038Z,98499.89
2019-03-09T23:58:02.223Z,98505.56
